Time;durP1;ratioP1;P1;durP2;ratioP2;P2;SDS_P1;SDS_P2;PMS_P1;PMS_P2;Temp;Humidity;BMP_temperature;BMP_pressure;BME280_temperature;BME280_humidity;BME280_pressure;Samples;Min_cycle;Max_cycle;Signal;HPM_P1;HPM_P2
2022/07/17 00:00:26;;;;;;;1.40;0.93;;;;;;;21.59;37.04;100388.00;4400589;32;34140;-80
2022/07/17 00:02:54;;;;;;;1.20;0.85;;;;;;;21.42;37.25;100389.41;4393494;32;33936;-79
2022/07/17 00:05:21;;;;;;;0.77;0.62;;;;;;;21.41;37.26;100384.19;4407941;32;33695;-81
2022/07/17 00:07:49;;;;;;;0.85;0.70;;;;;;;21.06;37.97;100394.78;4407452;32;34698;-75
2022/07/17 00:10:17;;;;;;;1.05;0.80;;;;;;;21.23;37.73;100395.00;4396660;32;33979;-74
2022/07/17 00:12:45;;;;;;;0.70;0.70;;;;;;;21.13;37.76;100395.19;4392260;32;33781;-81
2022/07/17 00:15:12;;;;;;;0.93;0.60;;;;;;;20.97;38.40;100389.13;4379279;32;33478;-73
2022/07/17 00:17:40;;;;;;;1.58;0.80;;;;;;;21.27;37.68;100398.81;4378692;32;34001;-76
2022/07/17 00:20:08;;;;;;;0.82;0.70;;;;;;;20.97;38.39;100397.41;4398252;32;34250;-82
2022/07/17 00:22:36;;;;;;;1.02;0.88;;;;;;;21.25;37.54;100398.28;4390936;32;33996;-81
2022/07/17 00:25:05;;;;;;;0.62;0.60;;;;;;;21.24;37.54;100404.09;4407403;32;33580;-81
2022/07/17 00:27:32;;;;;;;1.35;0.90;;;;;;;21.10;37.92;100404.06;4407620;32;33661;-79
2022/07/17 00:30:00;;;;;;;0.70;0.70;;;;;;;20.87;38.35;100403.09;4398596;32;34104;-81
2022/07/17 00:32:28;;;;;;;0.82;0.62;;;;;;;20.71;38.95;100402.50;4392116;32;34798;-77
2022/07/17 00:34:56;;;;;;;0.90;0.70;;;;;;;20.93;38.25;100410.16;4392257;32;34593;-81
2022/07/17 00:37:23;;;;;;;1.10;0.80;;;;;;;21.03;38.27;100406.41;4392534;32;33850;-81
2022/07/17 00:39:51;;;;;;;2.75;0.60;;;;;;;20.93;38.45;100406.56;4396194;32;34348;-81
2022/07/17 00:42:18;;;;;;;0.73;0.70;;;;;;;21.03;38.31;100418.25;4407583;32;34786;-79
2022/07/17 00:44:46;;;;;;;0.82;0.80;;;;;;;21.02;38.26;100424.09;4407101;32;33596;-81
2022/07/17 00:47:19;;;;;;;1.30;0.77;;;;;;;20.94;38.38;100416.50;4406986;32;34831;-81
2022/07/17 00:49:47;;;;;;;0.70;0.70;;;;;;;20.83;38.61;100416.66;4386366;32;34301;-81
2022/07/17 00:52:15;;;;;;;0.93;0.80;;;;;;;20.46;39.46;100417.50;4378571;32;34239;-80
2022/07/17 00:54:45;;;;;;;0.77;0.70;;;;;;;20.31;39.77;100414.97;4392099;32;33344;-81
2022/07/17 00:57:15;;;;;;;0.50;0.50;;;;;;;20.43;39.67;100418.09;4378569;32;34582;-82
2022/07/17 00:59:42;;;;;;;0.70;0.70;;;;;;;20.58;39.51;100423.44;4395246;32;34220;-79
2022/07/17 01:02:12;;;;;;;1.20;1.10;;;;;;;20.21;39.99;100427.75;4393796;32;34854;-82
2022/07/17 01:04:39;;;;;;;0.62;0.62;;;;;;;20.28;39.89;100424.66;4404892;32;33146;-82
2022/07/17 01:07:07;;;;;;;1.62;0.70;;;;;;;20.18;40.20;100427.56;4407376;32;34141;-77
2022/07/17 01:09:35;;;;;;;0.57;0.57;;;;;;;20.26;40.10;100429.66;4401410;32;35183;-81
2022/07/17 01:12:05;;;;;;;1.00;0.80;;;;;;;20.58;39.81;100428.09;4392291;32;33813;-81
2022/07/17 01:14:33;;;;;;;0.77;0.77;;;;;;;20.56;39.48;100433.91;4377945;32;33208;-82
2022/07/17 01:17:01;;;;;;;1.52;0.77;;;;;;;20.38;40.26;100432.75;4378555;32;33950;-82
2022/07/17 01:19:29;;;;;;;0.73;0.73;;;;;;;20.42;39.83;100441.28;4382039;32;34190;-81
2022/07/17 01:21:56;;;;;;;0.77;0.70;;;;;;;20.59;39.50;100435.25;4407458;32;33622;-74
2022/07/17 01:24:24;;;;;;;1.08;0.80;;;;;;;20.54;39.75;100441.66;4406805;32;33514;-79
2022/07/17 01:26:52;;;;;;;0.73;0.73;;;;;;;20.02;41.04;100437.94;4407069;32;34128;-79
2022/07/17 01:29:19;;;;;;;0.70;0.70;;;;;;;20.14;40.64;100432.81;4395975;32;34212;-82
2022/07/17 01:31:48;;;;;;;1.10;0.70;;;;;;;20.10;41.02;100430.97;4378721;32;34029;-82
2022/07/17 01:34:15;;;;;;;0.73;0.73;;;;;;;20.23;40.55;100436.56;4377981;32;34208;-82
2022/07/17 01:36:43;;;;;;;0.90;0.80;;;;;;;20.15;40.61;100437.25;4391606;32;34667;-77
2022/07/17 01:39:11;;;;;;;1.08;0.65;;;;;;;19.97;40.78;100444.34;4391713;32;34053;-78
2022/07/17 01:41:38;;;;;;;0.98;0.80;;;;;;;20.24;40.60;100440.97;4395019;32;33920;-82
2022/07/17 01:44:07;;;;;;;0.90;0.80;;;;;;;20.19;40.56;100445.72;4406511;32;33760;-81
2022/07/17 01:46:34;;;;;;;0.90;0.80;;;;;;;19.81;41.11;100449.22;4393322;32;33979;-80
2022/07/17 01:49:02;;;;;;;0.82;0.70;;;;;;;19.87;41.35;100448.06;4404966;32;33828;-80
2022/07/17 01:51:30;;;;;;;0.62;0.62;;;;;;;19.87;40.83;100450.81;4378038;32;34781;-82
2022/07/17 01:53:58;;;;;;;0.68;0.68;;;;;;;20.01;40.88;100450.91;4391528;32;34201;-81
2022/07/17 01:56:26;;;;;;;0.75;0.75;;;;;;;20.15;40.35;100450.16;4378270;32;34394;-79
2022/07/17 01:58:53;;;;;;;0.80;0.80;;;;;;;19.91;40.78;100451.00;4391341;32;33850;-78
2022/07/17 02:01:21;;;;;;;0.93;0.80;;;;;;;19.80;40.81;100460.53;4404674;32;34132;-80
2022/07/17 02:03:49;;;;;;;0.90;0.80;;;;;;;19.91;40.69;100466.72;4406601;32;33239;-80
2022/07/17 02:06:16;;;;;;;0.90;0.70;;;;;;;19.38;41.82;100467.56;4406791;32;33986;-76
2022/07/17 02:08:44;;;;;;;0.65;0.60;;;;;;;19.73;41.02;100466.38;4393103;32;34174;-80
2022/07/17 02:11:11;;;;;;;0.75;0.65;;;;;;;19.30;42.23;100468.19;4378567;32;34625;-80
2022/07/17 02:13:39;;;;;;;0.70;0.70;;;;;;;19.39;41.89;100463.69;4390909;32;33360;-79
2022/07/17 02:16:06;;;;;;;1.62;0.80;;;;;;;19.28;42.15;100471.22;4391111;32;33976;-80
2022/07/17 02:18:34;;;;;;;0.75;0.70;;;;;;;19.53;41.80;100475.66;4391520;32;34210;-79
2022/07/17 02:21:02;;;;;;;0.82;0.82;;;;;;;19.51;41.54;100475.13;4387956;32;33895;-81
2022/07/17 02:23:30;;;;;;;0.70;0.70;;;;;;;19.67;41.67;100478.53;4405539;32;33461;-74
2022/07/17 02:25:58;;;;;;;0.85;0.80;;;;;;;19.82;41.02;100483.06;4400996;32;34581;-80
2022/07/17 02:28:25;;;;;;;1.60;0.75;;;;;;;19.30;41.98;100488.25;4391479;32;34915;-77
2022/07/17 02:30:52;;;;;;;1.75;0.82;;;;;;;19.52;41.41;100493.25;4395009;32;34902;-79
2022/07/17 02:33:20;;;;;;;0.73;0.60;;;;;;;19.70;40.86;100494.50;4406145;32;33717;-79
2022/07/17 02:35:49;;;;;;;0.80;0.80;;;;;;;19.39;41.90;100489.25;4406409;32;33900;-80
2022/07/17 02:38:16;;;;;;;0.80;0.80;;;;;;;19.09;42.29;100490.34;4406435;32;33914;-80
2022/07/17 02:40:44;;;;;;;1.05;0.95;;;;;;;19.43;41.52;100495.81;4392839;32;34455;-74
2022/07/17 02:43:11;;;;;;;1.02;0.80;;;;;;;19.19;42.23;100498.53;4390900;32;33288;-81
2022/07/17 02:45:39;;;;;;;0.88;0.80;;;;;;;19.10;41.90;100497.50;4391099;32;34481;-79
2022/07/17 02:48:07;;;;;;;0.90;0.73;;;;;;;19.14;41.89;100503.25;4390677;32;34934;-80
2022/07/17 02:50:34;;;;;;;0.80;0.80;;;;;;;19.16;41.67;100501.84;4399550;32;34758;-80
2022/07/17 02:53:02;;;;;;;0.90;0.77;;;;;;;19.08;41.89;100504.41;4405762;32;34216;-82
2022/07/17 02:55:29;;;;;;;0.70;0.65;;;;;;;19.18;41.72;100507.91;4399561;32;33992;-81
2022/07/17 02:57:57;;;;;;;0.70;0.70;;;;;;;18.86;42.31;100502.91;4391040;32;34091;-81
2022/07/17 03:00:26;;;;;;;0.90;0.80;;;;;;;19.00;42.03;100508.56;4386055;32;34634;-81
2022/07/17 03:02:55;;;;;;;1.23;0.75;;;;;;;19.19;41.59;100501.28;4391810;32;33939;-77
2022/07/17 03:05:22;;;;;;;0.82;0.60;;;;;;;19.28;41.93;100509.72;4392304;32;34891;-80
2022/07/17 03:07:50;;;;;;;0.70;0.68;;;;;;;19.36;41.25;100505.53;4392686;32;34967;-82
2022/07/17 03:10:18;;;;;;;0.60;0.60;;;;;;;19.45;41.39;100515.63;4382558;32;33993;-76
2022/07/17 03:12:45;;;;;;;0.50;0.50;;;;;;;19.06;42.37;100516.50;4376912;32;34906;-76
2022/07/17 03:15:13;;;;;;;0.60;0.60;;;;;;;18.89;42.74;100507.81;4390608;32;35383;-82
2022/07/17 03:17:41;;;;;;;0.50;0.50;;;;;;;19.18;41.87;100512.56;4390636;32;33946;-81
2022/07/17 03:20:09;;;;;;;0.60;0.60;;;;;;;19.07;42.07;100522.84;4381080;32;34145;-81
2022/07/17 03:22:37;;;;;;;0.60;0.60;;;;;;;18.93;43.21;100517.16;4375307;32;33767;-81
2022/07/17 03:25:05;;;;;;;0.55;0.55;;;;;;;18.78;43.33;100528.25;4361638;32;34869;-80
2022/07/17 03:27:33;;;;;;;0.50;0.50;;;;;;;18.79;43.21;100535.37;4376958;32;34294;-81
2022/07/17 03:30:00;;;;;;;0.80;0.70;;;;;;;19.21;42.61;100534.00;4385310;32;33218;-81
2022/07/17 03:32:28;;;;;;;0.50;0.50;;;;;;;19.11;42.47;100537.63;4406781;32;33112;-77
2022/07/17 03:34:55;;;;;;;0.50;0.50;;;;;;;19.23;42.21;100546.34;4381734;32;33774;-81
2022/07/17 03:37:23;;;;;;;0.50;0.50;;;;;;;19.19;42.53;100545.28;4405947;32;35125;-78
2022/07/17 03:39:50;;;;;;;1.45;0.60;;;;;;;19.56;41.59;100545.81;4405163;32;34020;-81
2022/07/17 03:42:18;;;;;;;0.50;0.50;;;;;;;19.77;41.34;100558.31;4381466;32;33584;-81
2022/07/17 03:44:45;;;;;;;0.43;0.43;;;;;;;20.30;40.01;100554.69;4393477;32;34800;-80
2022/07/17 03:47:13;;;;;;;0.47;0.47;;;;;;;20.73;39.20;100553.88;4379997;32;34220;-80
2022/07/17 03:49:41;;;;;;;0.45;0.45;;;;;;;21.02;38.14;100560.09;4393071;32;33954;-82
2022/07/17 03:52:08;;;;;;;0.65;0.62;;;;;;;21.27;38.27;100555.28;4393056;32;33161;-80
2022/07/17 03:54:37;;;;;;;0.50;0.50;;;;;;;21.52;37.59;100558.78;4385883;32;34059;-83
2022/07/17 03:57:04;;;;;;;0.60;0.60;;;;;;;21.60;37.68;100558.91;4397548;32;34246;-79
2022/07/17 03:59:32;;;;;;;0.43;0.43;;;;;;;21.89;37.47;100566.13;4395764;32;33653;-80
2022/07/17 04:01:59;;;;;;;0.50;0.50;;;;;;;22.12;36.45;100567.06;4397773;32;33537;-82
2022/07/17 04:04:27;;;;;;;0.50;0.50;;;;;;;22.24;36.19;100569.34;4392279;32;33865;-82
2022/07/17 04:06:55;;;;;;;0.50;0.50;;;;;;;22.37;36.07;100576.81;4364054;32;34198;-76
2022/07/17 04:09:22;;;;;;;0.50;0.50;;;;;;;22.52;35.36;100582.03;4389873;32;33763;-79
2022/07/17 04:11:50;;;;;;;0.60;0.60;;;;;;;22.52;34.93;100578.44;4403385;32;34508;-83
2022/07/17 04:14:17;;;;;;;0.70;0.70;;;;;;;22.60;35.02;100579.69;4406933;32;33901;-86
2022/07/17 04:16:44;;;;;;;0.80;0.43;;;;;;;22.60;34.87;100586.03;4407214;32;35020;-78
2022/07/17 04:19:12;;;;;;;0.50;0.50;;;;;;;22.60;34.89;100579.69;4392853;32;33795;-82
2022/07/17 04:21:40;;;;;;;0.75;0.50;;;;;;;22.25;36.82;100582.87;4392713;32;33478;-84
2022/07/17 04:24:08;;;;;;;0.40;0.40;;;;;;;22.77;34.88;100587.34;4392592;32;33745;-81
2022/07/17 04:26:35;;;;;;;0.85;0.55;;;;;;;22.95;34.63;100586.34;4363716;32;32939;-83
2022/07/17 04:29:03;;;;;;;0.43;0.43;;;;;;;23.09;34.23;100589.94;4391799;32;33793;-82
2022/07/17 04:31:31;;;;;;;0.50;0.50;;;;;;;23.07;34.49;100591.41;4378480;32;33229;-86
2022/07/17 04:33:59;;;;;;;0.52;0.47;;;;;;;23.35;33.50;100592.13;4391510;32;34153;-86
2022/07/17 04:36:26;;;;;;;0.43;0.43;;;;;;;22.86;35.38;100599.31;4393627;32;35854;-85
2022/07/17 04:38:54;;;;;;;0.40;0.40;;;;;;;23.21;34.68;100597.69;4394933;32;34752;-80
2022/07/17 04:41:21;;;;;;;0.40;0.40;;;;;;;23.42;34.76;100600.78;4393060;32;33513;-85
2022/07/17 04:43:49;;;;;;;0.45;0.45;;;;;;;23.32;34.71;100606.56;4392136;32;33911;-72
2022/07/17 04:46:16;;;;;;;0.60;0.60;;;;;;;23.41;33.90;100603.88;4391992;32;35205;-73
2022/07/17 04:48:44;;;;;;;0.40;0.40;;;;;;;23.13;34.11;100613.09;4392732;32;34282;-87
2022/07/17 04:51:12;;;;;;;0.50;0.50;;;;;;;23.60;33.74;100609.22;4393465;32;34200;-84
2022/07/17 04:53:39;;;;;;;0.52;0.52;;;;;;;23.42;33.94;100614.62;4393163;32;33879;-70
2022/07/17 04:56:07;;;;;;;0.50;0.50;;;;;;;23.49;33.77;100615.00;4393293;32;34152;-70
2022/07/17 04:58:34;;;;;;;0.45;0.45;;;;;;;24.01;32.34;100613.75;4392886;32;33935;-85
2022/07/17 05:01:02;;;;;;;0.50;0.50;;;;;;;24.03;32.67;100614.25;4393072;32;33629;-85
2022/07/17 05:03:30;;;;;;;0.47;0.45;;;;;;;24.32;32.34;100610.97;4393392;32;34724;-86
2022/07/17 05:05:57;;;;;;;0.45;0.45;;;;;;;23.93;32.93;100623.63;4379643;32;35092;-69
2022/07/17 05:08:24;;;;;;;0.60;0.50;;;;;;;24.25;32.06;100613.34;4393296;32;34463;-86
2022/07/17 05:10:52;;;;;;;1.77;0.50;;;;;;;24.48;32.27;100617.72;4380146;32;33665;-87
2022/07/17 05:13:19;;;;;;;0.40;0.40;;;;;;;24.07;32.91;100618.81;4393137;32;33895;-82
2022/07/17 05:15:49;;;;;;;0.50;0.50;;;;;;;24.21;32.72;100627.06;4393085;32;34313;-87
2022/07/17 05:18:17;;;;;;;0.43;0.40;;;;;;;24.71;32.07;100632.31;4393071;32;34639;-86
2022/07/17 05:20:45;;;;;;;0.32;0.32;;;;;;;24.31;33.08;100628.72;4364487;32;33569;-71
2022/07/17 05:23:13;;;;;;;0.47;0.43;;;;;;;25.08;30.90;100638.44;4390512;32;33970;-86
2022/07/17 05:25:40;;;;;;;0.40;0.40;;;;;;;24.97;32.85;100621.28;4393201;32;34206;-85
2022/07/17 05:28:08;;;;;;;0.50;0.50;;;;;;;25.37;30.67;100626.69;4379125;32;32756;-86
2022/07/17 05:30:35;;;;;;;0.50;0.50;;;;;;;25.07;31.75;100619.31;4379465;32;33421;-86
2022/07/17 05:33:03;;;;;;;0.40;0.40;;;;;;;25.44;30.24;100619.84;4393219;32;34125;-88
2022/07/17 05:35:31;;;;;;;0.40;0.40;;;;;;;25.01;31.00;100628.94;4392794;32;34297;-84
2022/07/17 05:37:58;;;;;;;0.47;0.47;;;;;;;24.81;32.50;100627.59;4379481;32;34744;-70
2022/07/17 05:40:26;;;;;;;0.40;0.40;;;;;;;24.51;31.66;100636.50;4393024;32;33362;-85
2022/07/17 05:42:54;;;;;;;0.40;0.40;;;;;;;24.64;33.23;100634.72;4379163;32;33960;-84
2022/07/17 05:45:21;;;;;;;0.40;0.40;;;;;;;24.75;33.01;100635.25;4392944;32;34121;-86
2022/07/17 05:47:49;;;;;;;0.32;0.32;;;;;;;24.94;31.36;100629.41;4391093;32;34287;-77
2022/07/17 05:50:16;;;;;;;0.50;0.50;;;;;;;25.40;30.21;100638.31;4398790;32;33472;-81
2022/07/17 05:52:44;;;;;;;0.40;0.40;;;;;;;25.38;31.75;100635.88;4404987;32;34024;-80
2022/07/17 05:55:12;;;;;;;0.40;0.40;;;;;;;24.95;32.94;100642.97;4407982;32;34658;-74
2022/07/17 05:57:39;;;;;;;0.40;0.40;;;;;;;25.18;31.77;100646.44;4407774;32;34032;-71
2022/07/17 06:00:07;;;;;;;0.50;0.50;;;;;;;25.26;31.21;100639.28;4407916;32;34102;-69
2022/07/17 06:02:38;;;;;;;0.45;0.45;;;;;;;24.92;32.28;100638.09;4407973;32;34794;-71
2022/07/17 06:05:06;;;;;;;0.43;0.43;;;;;;;25.32;31.92;100640.75;4407602;32;34085;-78
2022/07/17 06:07:34;;;;;;;0.40;0.40;;;;;;;25.54;31.25;100642.53;4406471;32;33983;-80
2022/07/17 06:10:02;;;;;;;0.50;0.50;;;;;;;26.12;30.20;100645.09;4394212;32;33383;-74
2022/07/17 06:12:30;;;;;;;0.50;0.50;;;;;;;25.44;31.96;100645.66;4407538;32;34822;-79
2022/07/17 06:14:57;;;;;;;0.40;0.40;;;;;;;25.35;30.58;100645.66;4407573;32;34268;-70
2022/07/17 06:17:25;;;;;;;0.40;0.40;;;;;;;25.41;31.56;100648.28;4407473;32;34709;-71
2022/07/17 06:19:55;;;;;;;0.47;0.40;;;;;;;25.60;31.08;100647.97;4407347;32;33356;-71
2022/07/17 06:22:23;;;;;;;0.40;0.40;;;;;;;25.99;30.37;100652.50;4389925;32;34027;-79
2022/07/17 06:24:50;;;;;;;0.50;0.50;;;;;;;26.45;28.16;100653.63;4392223;32;34315;-81
2022/07/17 06:27:18;;;;;;;0.40;0.40;;;;;;;26.68;27.49;100656.19;4392072;32;33908;-74
2022/07/17 06:29:46;;;;;;;0.50;0.50;;;;;;;26.11;28.75;100652.62;4392415;32;33458;-74
2022/07/17 06:32:23;;;;;;;0.40;0.40;;;;;;;26.51;27.87;100657.06;4391887;32;33993;-72
2022/07/17 06:34:50;;;;;;;0.50;0.50;;;;;;;26.89;27.60;100659.00;4392246;32;34296;-73
2022/07/17 06:37:17;;;;;;;0.47;0.47;;;;;;;26.69;26.75;100657.81;4391659;32;34028;-79
2022/07/17 06:39:45;;;;;;;0.30;0.30;;;;;;;26.42;27.21;100654.31;4391957;32;33482;-73
2022/07/17 06:42:13;;;;;;;0.55;0.55;;;;;;;25.94;27.33;100661.00;4392046;32;34588;-77
2022/07/17 06:44:40;;;;;;;0.40;0.40;;;;;;;26.16;28.74;100657.19;4400634;32;33828;-72
2022/07/17 06:47:08;;;;;;;0.40;0.40;;;;;;;25.81;27.64;100667.53;4393424;32;34865;-78
2022/07/17 06:49:35;;;;;;;0.60;0.40;;;;;;;26.60;27.24;100661.44;4406853;32;33547;-85
2022/07/17 06:52:03;;;;;;;0.40;0.40;;;;;;;25.65;28.84;100661.66;4406839;32;33850;-75
2022/07/17 06:54:31;;;;;;;0.30;0.30;;;;;;;25.68;28.29;100661.00;4393174;32;34166;-83
2022/07/17 06:56:58;;;;;;;0.30;0.30;;;;;;;26.05;28.41;100667.03;4406915;32;34144;-83
2022/07/17 06:59:26;;;;;;;0.40;0.40;;;;;;;25.35;30.25;100667.06;4393216;32;32861;-83
2022/07/17 07:01:53;;;;;;;0.37;0.37;;;;;;;26.33;27.20;100659.09;4407880;32;34092;-74
2022/07/17 07:04:21;;;;;;;0.40;0.40;;;;;;;25.57;28.30;100661.34;4408869;32;35130;-79
2022/07/17 07:06:48;;;;;;;0.32;0.32;;;;;;;26.10;26.92;100662.09;4408984;32;33946;-68
2022/07/17 07:09:16;;;;;;;0.50;0.40;;;;;;;26.66;26.51;100662.09;4400159;32;33241;-79
2022/07/17 07:11:43;;;;;;;0.40;0.40;;;;;;;26.27;25.64;100658.47;4409160;32;34717;-78
2022/07/17 07:14:11;;;;;;;0.40;0.40;;;;;;;25.75;28.35;100662.16;4395026;32;34125;-75
2022/07/17 07:16:39;;;;;;;0.40;0.40;;;;;;;26.54;25.57;100657.22;4407418;32;34900;-76
2022/07/17 07:19:06;;;;;;;0.40;0.40;;;;;;;27.46;24.61;100668.81;4408699;32;33375;-73
2022/07/17 07:21:34;;;;;;;0.35;0.35;;;;;;;26.59;24.27;100659.03;4408588;32;34091;-75
2022/07/17 07:24:02;;;;;;;0.40;0.40;;;;;;;25.29;24.72;100658.09;4408621;32;34118;-76
2022/07/17 07:26:29;;;;;;;0.35;0.35;;;;;;;25.84;24.41;100661.31;4408072;32;34710;-74
2022/07/17 07:28:57;;;;;;;0.30;0.30;;;;;;;26.43;24.61;100655.94;4407804;32;33547;-73
2022/07/17 07:31:25;;;;;;;0.35;0.35;;;;;;;26.68;24.24;100673.69;4408326;32;33945;-72
2022/07/17 07:33:52;;;;;;;0.40;0.40;;;;;;;27.08;24.02;100675.25;4408924;32;34214;-72
2022/07/17 07:36:20;;;;;;;0.40;0.40;;;;;;;27.07;23.53;100662.50;4408400;32;33952;-74
2022/07/17 07:38:51;;;;;;;0.37;0.37;;;;;;;26.53;23.29;100669.47;4408540;32;33440;-75
2022/07/17 07:41:19;;;;;;;0.40;0.40;;;;;;;26.13;24.26;100672.59;4408594;32;34060;-75
2022/07/17 07:43:46;;;;;;;0.32;0.32;;;;;;;25.32;24.72;100662.97;4404844;32;34278;-70
2022/07/17 07:46:14;;;;;;;1.35;0.40;;;;;;;24.56;24.79;100663.28;4393107;32;34110;-74
2022/07/17 07:48:42;;;;;;;0.40;0.40;;;;;;;24.67;26.00;100659.09;4392199;32;33415;-79
2022/07/17 07:51:10;;;;;;;0.30;0.30;;;;;;;25.19;24.93;100655.59;4393471;32;34194;-70
2022/07/17 07:53:38;;;;;;;0.40;0.40;;;;;;;25.38;24.38;100660.87;4387677;32;33884;-78
2022/07/17 07:56:06;;;;;;;0.30;0.30;;;;;;;25.07;25.57;100666.50;4393923;32;33972;-79
2022/07/17 07:58:33;;;;;;;0.40;0.40;;;;;;;25.54;25.60;100672.31;4393585;32;33343;-79
2022/07/17 08:01:01;;;;;;;0.40;0.40;;;;;;;25.73;25.41;100674.75;4407241;32;33914;-73
2022/07/17 08:03:29;;;;;;;0.50;0.50;;;;;;;25.70;25.13;100667.87;4408595;32;34320;-79
2022/07/17 08:05:56;;;;;;;0.40;0.40;;;;;;;25.78;25.69;100663.44;4408456;32;33903;-72
2022/07/17 08:08:24;;;;;;;0.40;0.40;;;;;;;26.05;25.53;100667.03;4408372;32;34135;-75
2022/07/17 08:10:52;;;;;;;0.40;0.40;;;;;;;25.61;25.27;100669.03;4408112;32;33761;-72
2022/07/17 08:13:19;;;;;;;0.40;0.40;;;;;;;25.28;26.03;100678.66;4394215;32;34303;-78
2022/07/17 08:15:47;;;;;;;0.65;0.50;;;;;;;24.55;26.54;100665.22;4392857;32;34229;-77
2022/07/17 08:18:14;;;;;;;0.40;0.40;;;;;;;24.86;26.05;100671.84;4382415;32;34031;-76
2022/07/17 08:20:43;;;;;;;0.43;0.40;;;;;;;25.19;27.54;100669.47;4376706;32;33632;-76
2022/07/17 08:23:10;;;;;;;0.40;0.40;;;;;;;25.13;26.07;100679.91;4376792;32;34186;-80
2022/07/17 08:25:38;;;;;;;0.40;0.40;;;;;;;24.37;26.60;100678.19;4377143;32;33551;-79
2022/07/17 08:28:06;;;;;;;0.40;0.40;;;;;;;25.36;25.21;100677.03;4376910;32;33451;-71
2022/07/17 08:30:34;;;;;;;0.40;0.40;;;;;;;25.34;24.96;100684.87;4375864;32;33914;-82
2022/07/17 08:33:04;;;;;;;0.32;0.32;;;;;;;24.92;25.19;100676.97;4375916;32;34591;-79
2022/07/17 08:35:32;;;;;;;0.40;0.40;;;;;;;24.76;25.66;100675.75;4396377;32;33935;-79
2022/07/17 08:38:02;;;;;;;0.40;0.40;;;;;;;25.10;25.36;100677.81;4408411;32;33534;-77
2022/07/17 08:40:32;;;;;;;0.40;0.40;;;;;;;25.53;25.75;100676.25;4408325;32;33820;-79
2022/07/17 08:43:01;;;;;;;0.60;0.60;;;;;;;25.51;25.71;100678.53;4408198;32;34309;-80
2022/07/17 08:45:28;;;;;;;1.08;0.70;;;;;;;25.94;23.53;100677.66;4407993;32;34110;-66
2022/07/17 08:47:56;;;;;;;0.40;0.40;;;;;;;25.49;25.95;100678.03;4408244;32;33392;-82
2022/07/17 08:50:27;;;;;;;0.50;0.43;;;;;;;25.42;25.17;100672.13;4407965;32;34836;-78
2022/07/17 08:52:54;;;;;;;0.30;0.30;;;;;;;26.18;24.88;100668.81;4408669;32;33978;-83
2022/07/17 08:55:22;;;;;;;0.40;0.40;;;;;;;25.89;25.85;100675.88;4381006;32;34878;-87
2022/07/17 08:57:49;;;;;;;1.37;0.50;;;;;;;24.69;26.10;100678.19;4408197;32;34361;-68
2022/07/17 09:00:22;;;;;;;0.30;0.30;;;;;;;25.33;26.36;100677.69;4408390;32;34049;-72
2022/07/17 09:02:57;;;;;;;0.40;0.40;;;;;;;25.37;26.31;100676.69;4408323;32;35127;-82
2022/07/17 09:05:27;;;;;;;0.40;0.40;;;;;;;25.99;25.13;100675.53;4408346;32;35018;-79
2022/07/17 09:07:56;;;;;;;0.30;0.30;;;;;;;25.84;26.63;100683.56;4408324;32;34540;-84
2022/07/17 09:10:41;;;;;;;0.40;0.40;;;;;;;26.12;26.10;100678.47;4408130;32;34739;-68
2022/07/17 09:13:14;;;;;;;0.40;0.40;;;;;;;26.27;25.71;100668.78;4406995;32;34800;-74
2022/07/17 09:15:42;;;;;;;0.40;0.40;;;;;;;26.23;25.72;100678.94;4402492;32;34743;-73
2022/07/17 09:18:13;;;;;;;0.30;0.30;;;;;;;26.05;25.61;100664.25;4408190;32;34318;-66
2022/07/17 09:20:49;;;;;;;0.30;0.30;;;;;;;26.23;25.21;100674.19;4408261;32;34041;-70
2022/07/17 09:23:18;;;;;;;0.30;0.30;;;;;;;26.15;25.96;100669.44;4407949;32;34017;-70
2022/07/17 09:25:50;;;;;;;0.30;0.30;;;;;;;26.69;24.68;100666.16;4407234;32;33772;-71
2022/07/17 09:28:18;;;;;;;0.30;0.30;;;;;;;26.62;24.66;100675.03;4408320;32;33639;-71
2022/07/17 09:30:49;;;;;;;0.30;0.30;;;;;;;26.74;23.58;100666.00;4408136;32;33935;-72
2022/07/17 09:33:22;;;;;;;0.50;0.50;;;;;;;26.77;23.12;100654.97;4408086;32;34252;-68
2022/07/17 09:35:53;;;;;;;0.30;0.30;;;;;;;25.88;23.15;100662.31;4408001;32;33847;-67
2022/07/17 09:38:35;;;;;;;0.30;0.30;;;;;;;26.24;24.22;100664.69;4408121;32;34328;-70
2022/07/17 09:41:11;;;;;;;0.32;0.32;;;;;;;26.64;23.29;100667.16;4408018;32;34210;-70
2022/07/17 09:43:44;;;;;;;0.40;0.40;;;;;;;26.73;23.57;100653.22;4407989;32;34111;-70
2022/07/17 09:46:27;;;;;;;0.40;0.40;;;;;;;26.60;24.09;100657.84;4407764;32;34051;-71
2022/07/17 09:49:01;;;;;;;0.40;0.40;;;;;;;25.88;24.33;100648.41;4408353;32;33469;-71
2022/07/17 09:51:29;;;;;;;0.40;0.40;;;;;;;26.29;24.29;100644.22;4407720;32;33831;-69
2022/07/17 09:53:59;;;;;;;0.40;0.40;;;;;;;26.69;24.06;100649.47;4408033;32;33975;-71
2022/07/17 09:56:29;;;;;;;0.60;0.60;;;;;;;26.94;23.25;100653.25;4407830;32;34981;-69
2022/07/17 09:59:02;;;;;;;0.37;0.37;;;;;;;27.22;24.21;100649.97;4407753;32;33706;-69
2022/07/17 10:01:30;;;;;;;0.40;0.40;;;;;;;26.74;23.99;100654.84;4407868;32;34059;-67
2022/07/17 10:04:01;;;;;;;0.30;0.30;;;;;;;26.47;23.26;100650.53;4407716;32;34970;-69
2022/07/17 10:06:29;;;;;;;0.50;0.50;;;;;;;26.72;22.84;100651.59;4408092;32;34002;-69
2022/07/17 10:08:58;;;;;;;0.30;0.30;;;;;;;26.86;23.10;100649.34;4408133;32;33484;-71
2022/07/17 10:11:28;;;;;;;0.65;0.43;;;;;;;26.93;22.58;100651.59;4407544;32;34019;-70
2022/07/17 10:14:00;;;;;;;0.52;0.40;;;;;;;26.18;23.48;100646.56;4406599;32;34206;-70
2022/07/17 10:16:30;;;;;;;0.30;0.30;;;;;;;25.16;24.75;100650.69;4394127;32;33971;-75
2022/07/17 10:19:00;;;;;;;0.75;0.40;;;;;;;25.88;25.11;100657.59;4407870;32;33664;-76
2022/07/17 10:21:31;;;;;;;0.55;0.30;;;;;;;26.35;24.30;100640.09;4407438;32;33943;-73
2022/07/17 10:23:59;;;;;;;0.40;0.40;;;;;;;26.93;23.69;100644.09;4407201;32;33895;-73
2022/07/17 10:26:48;;;;;;;0.40;0.40;;;;;;;26.13;23.42;100647.56;4381961;32;33995;-75
2022/07/17 10:29:45;;;;;;;0.40;0.40;;;;;;;25.93;23.25;100639.91;4375525;32;33598;-75
2022/07/17 10:32:16;;;;;;;0.40;0.40;;;;;;;25.64;25.29;100644.19;4355383;32;33984;-75
2022/07/17 10:34:48;;;;;;;0.45;0.40;;;;;;;25.48;24.49;100624.41;4375952;32;34157;-72
2022/07/17 10:37:34;;;;;;;0.35;0.35;;;;;;;25.88;23.67;100638.13;4377242;32;33972;-76
2022/07/17 10:40:10;;;;;;;0.30;0.30;;;;;;;26.33;24.73;100647.97;4377747;32;33551;-68
2022/07/17 10:43:04;;;;;;;0.57;0.55;;;;;;;26.02;23.48;100645.44;4377893;32;34078;-69
2022/07/17 10:45:42;;;;;;;0.50;0.50;;;;;;;26.37;23.19;100640.56;4377811;32;35042;-68
2022/07/17 10:48:15;;;;;;;0.47;0.47;;;;;;;26.57;23.69;100627.94;4377031;32;34431;-76
2022/07/17 10:50:47;;;;;;;0.40;0.40;;;;;;;26.47;24.39;100640.19;4377926;32;33450;-68
2022/07/17 10:53:24;;;;;;;0.40;0.40;;;;;;;27.37;22.08;100639.03;4379825;32;33605;-75
2022/07/17 10:56:04;;;;;;;0.40;0.40;;;;;;;27.25;23.18;100638.94;4392305;32;34816;-74
2022/07/17 10:58:38;;;;;;;0.32;0.32;;;;;;;27.67;22.62;100630.56;4392816;32;34611;-75
2022/07/17 11:01:13;;;;;;;0.40;0.40;;;;;;;27.95;20.29;100621.62;4393081;32;33501;-80
2022/07/17 11:03:46;;;;;;;0.30;0.30;;;;;;;28.28;21.13;100621.53;4392824;32;34250;-76
2022/07/17 11:06:21;;;;;;;0.30;0.30;;;;;;;27.42;21.67;100632.44;4392651;32;33835;-77
2022/07/17 11:08:56;;;;;;;0.30;0.30;;;;;;;26.89;20.80;100620.84;4392864;32;33999;-77
2022/07/17 11:11:49;;;;;;;0.40;0.40;;;;;;;27.28;21.31;100623.53;4392149;32;34425;-67
2022/07/17 11:14:19;;;;;;;0.40;0.40;;;;;;;27.03;22.11;100617.00;4392640;32;34436;-67
2022/07/17 11:17:07;;;;;;;0.45;0.40;;;;;;;26.66;21.72;100611.97;4392626;32;34009;-70
2022/07/17 11:19:38;;;;;;;0.40;0.40;;;;;;;27.30;22.27;100610.06;4392581;32;34743;-78
2022/07/17 11:22:09;;;;;;;0.30;0.30;;;;;;;26.96;22.50;100604.41;4392577;32;34198;-79
2022/07/17 11:24:44;;;;;;;0.60;0.50;;;;;;;27.82;21.63;100610.41;4392357;32;34456;-69
2022/07/17 11:27:32;;;;;;;0.40;0.40;;;;;;;27.37;20.93;100610.34;4392484;32;33879;-73
2022/07/17 11:30:01;;;;;;;0.40;0.40;;;;;;;27.67;21.26;100604.62;4392641;32;33767;-76
2022/07/17 11:32:36;;;;;;;0.50;0.50;;;;;;;27.71;21.77;100602.78;4392323;32;34121;-67